Ottawa Lake, MI (49267)

4:19 PM EDT on September 01, 2014 (GMT -0400)
Bedford | Change Station
CLOSE
Current Station
Personal Weather Station
Location: Temperance, MI
Elevation: 656 ft
Nearby Weather Stations

Elev 656 ft 41.78 °N, 83.59 °W | Updated 5 seconds ago

Scattered Clouds
Scattered Clouds
86.7 °F
Feels Like 93 °F
N
9.6
Wind Variable Wind from WSW
Gusts 12.3 mph

Today
High -- | Low -- °F
--% Chance of Precip.
Yesterday
High -- | Low -- °F
Precip. -- in
7:00 AM 8:08 PM
Waxing Crescent, 44% visible
Pressure 29.80 in
Visibility 10.0 miles
Clouds Scattered Clouds 4400 ft
Scattered Clouds 5000 ft
Scattered Clouds 6500 ft
Heat Index 93 °F
Dew Point 72 °F
Humidity 61%
Rainfall 0.00 in
Snow Depth Not available.
UV 4 out of 12
Pollen 9.00 out of 12
Ozone Good
PM2.5 Good
Flu Activity Not available.
METAR KDUH 012015Z AUTO 23010G20KT 200V260 10SM SCT044 SCT050 SCT065 31/20 A2980 RMK AO2

More Conditions Fewer Conditions

Pressure 29.80 in
Visibility 10.0 miles
Clouds Scattered Clouds 4400 ft
Scattered Clouds 5000 ft
Scattered Clouds 6500 ft
Heat Index 93 °F
Dew Point 72 °F
Humidity 61%
Rainfall 0.00 in
Snow Depth Not available.
UV 4 out of 12
Pollen 9.00 out of 12
Ozone Good
PM2.5 Good
Flu Activity Not available.
METAR KDUH 012015Z AUTO 23010G20KT 200V260 10SM SCT044 SCT050 SCT065 31/20 A2980 RMK AO2

More Conditions Fewer Conditions

10-Day Weather Forecast

Almanac

Astronomy

Sep. 01, 2014 Rise Set
Actual Time 7:00 AM EDT 8:08 PM EDT
Civil Twilight 6:32 AM EDT 8:36 PM EDT
Nautical Twilight 5:57 AM EDT 9:10 PM EDT
Astronomical Twilight 5:21 AM EDT 9:46 PM EDT
Moon 1:51 PM EDT No Moon Set
Length of Visible Light 14h 04m
Length of Day
13h 07m
Tomorrow will be 2m 42s shorter.
Waxing Crescent, 44% of the Moon is Illuminated
Today
Waxing Crescent
Sep 2
First Quarter
Sep 8
Full
Sep 15
Last Quarter
Sep 24
New

Today's Extremes

State Highs State Lows

Community

WunderPhotos

Upload Photos

1,749,394 photos uploaded!

WunderBlogs® & News

Nearby

Air Quality

  Air Quality AQ Index Pollutant
Yesterday Good
PM2.5
Yesterday Good
OZONE
Current Good
PM2.5
Current Good
OZONE
Monday Good
OZONE
Monday Good
PM2.5
Tuesday Good
OZONE
Tuesday Good
PM2.5

Snow Depth

Station Depth Elevation
No new snow has been reported.

Earthquake Activity

City Distance Mag. Time & Date
No recent earthquake activity has been reported nearby.
Minimum magnitude displayed is 2.5.

Coastal Water Temperatures

Place Temperature
Marblehead, OH 73.0 °F

Nearby Weather Stations